Аэропорт: Оренбург-Центральный. Оренбург

ICAO: UWOO

METAR:
2021-01-19 12:00:00
UWOO 191200Z 14004MPS 6000 -SN OVC018 M10/M12 Q1010 R08/450739 NOSIG RMK QFE747/0996
METAR:
2021-01-19 10:59:00
TAF UWOO 191059Z 1912/2012 13006G12MPS 6000 -SN FEW007 BKN016 TXM11/1912Z TNM20/1924Z TEMPO 1912/1916 11003G08MPS 1000 SN BR BKN004 TEMPO 1916/2009 28003G08MPS 0500 -SN FZFG VV002